createdAt,value
2019-04-25T00:00:01.999Z,990.2
2019-04-25T00:05:03.035Z,990.23
2019-04-25T00:10:01.656Z,990.11
2019-04-25T00:15:01.857Z,990.07
2019-04-25T00:20:02.006Z,989.99
2019-04-25T00:25:14.705Z,989.98
2019-04-25T00:30:01.801Z,989.9
2019-04-25T00:35:02.132Z,989.89
2019-04-25T00:40:01.632Z,989.96
2019-04-25T00:45:02.353Z,990.07
2019-04-25T00:50:02.339Z,990.04
2019-04-25T00:55:02.056Z,990.23
2019-04-25T01:00:01.872Z,990.28
2019-04-25T01:05:01.854Z,990.36
2019-04-25T01:10:02.434Z,990.42
2019-04-25T01:15:01.987Z,990.42
2019-04-25T01:20:01.308Z,990.41
2019-04-25T01:25:01.721Z,990.4
2019-04-25T01:30:02.131Z,990.53
2019-04-25T01:35:01.250Z,990.46
2019-04-25T01:40:01.371Z,990.45
2019-04-25T01:45:01.497Z,990.42
2019-04-25T01:50:01.685Z,990.45
2019-04-25T01:55:03.517Z,990.49
2019-04-25T02:00:01.944Z,990.33
2019-04-25T02:05:01.734Z,990.38
2019-04-25T02:10:03.631Z,990.46
2019-04-25T02:15:03.943Z,990.49
2019-04-25T02:20:02.095Z,990.4
2019-04-25T02:25:01.243Z,990.47
2019-04-25T02:30:01.436Z,990.6
2019-04-25T02:35:07.900Z,990.66
2019-04-25T02:40:03.903Z,990.62
2019-04-25T02:45:03.166Z,990.6
2019-04-25T02:50:03.480Z,990.63
2019-04-25T02:55:02.202Z,990.66
2019-04-25T03:00:02.708Z,990.64
2019-04-25T03:05:03.988Z,990.62
2019-04-25T03:10:02.042Z,990.62
2019-04-25T03:15:02.083Z,990.61
2019-04-25T03:20:06.627Z,990.56
2019-04-25T03:25:02.229Z,990.69
2019-04-25T03:30:02.040Z,990.65
2019-04-25T03:35:01.327Z,990.64
2019-04-25T03:40:02.650Z,990.7
2019-04-25T03:45:01.592Z,990.68
2019-04-25T03:50:02.770Z,990.69
2019-04-25T03:55:02.242Z,990.71
2019-04-25T04:00:03.603Z,990.67
2019-04-25T04:05:01.418Z,990.79
2019-04-25T04:10:03.541Z,990.97
2019-04-25T04:15:01.666Z,990.94
2019-04-25T04:20:01.796Z,990.95
2019-04-25T04:25:03.671Z,991.01
2019-04-25T04:30:01.937Z,991.07
2019-04-25T04:35:03.487Z,991.21
2019-04-25T04:40:03.418Z,991.26
2019-04-25T04:45:03.548Z,991.3
2019-04-25T04:50:01.787Z,991.26
2019-04-25T04:55:06.313Z,991.27
2019-04-25T05:00:01.383Z,991.26
2019-04-25T05:05:01.551Z,991.2
2019-04-25T05:10:03.215Z,991.13
2019-04-25T05:15:01.483Z,991.14
2019-04-25T05:20:03.444Z,991.11
2019-04-25T05:25:01.610Z,991.09
2019-04-25T05:30:01.787Z,991.11
2019-04-25T05:35:03.392Z,991.29
2019-04-25T05:40:01.557Z,991.3
2019-04-25T05:45:01.684Z,991.29
2019-04-25T05:50:01.862Z,991.24
2019-04-25T05:55:01.988Z,991.38
2019-04-25T06:00:03.639Z,991.52
2019-04-25T06:05:03.511Z,991.51
2019-04-25T06:09:24.033Z,991.5
2019-04-25T06:10:01.717Z,991.5
2019-04-25T06:15:02.994Z,991.4
2019-04-25T06:16:15.135Z,991.62
2019-04-25T06:16:50.519Z,991.62
2019-04-25T06:17:30.110Z,991.62
2019-04-25T06:21:43.567Z,991.64
2019-04-25T06:25:01.683Z,991.69
2019-04-25T06:25:01.755Z,991.69
2019-04-25T06:25:01.834Z,991.69
2019-04-25T06:25:01.914Z,991.69
2019-04-25T06:25:02.028Z,991.69
2019-04-25T06:25:02.124Z,991.69
2019-04-25T06:25:34.272Z,991.78
2019-04-25T06:26:48.893Z,991.73
2019-04-25T06:27:03.842Z,991.73
2019-04-25T06:30:01.649Z,991.74
2019-04-25T06:35:01.806Z,991.74
2019-04-25T06:40:03.445Z,991.97
2019-04-25T06:45:01.183Z,991.98
2019-04-25T06:46:43.985Z,992.01
2019-04-25T06:47:10.720Z,992.01
2019-04-25T06:50:01.356Z,991.95
2019-04-25T06:51:34.384Z,991.99
2019-04-25T06:51:44.050Z,991.99
2019-04-25T06:51:55.855Z,991.96
2019-04-25T06:51:59.792Z,991.96
2019-04-25T06:55:03.303Z,992.06
2019-04-25T07:00:01.507Z,992.19
2019-04-25T07:00:09.082Z,992.19
2019-04-25T07:05:01.627Z,992.22
2019-04-25T07:10:03.516Z,992.25
2019-04-25T07:15:01.744Z,992.22
2019-04-25T07:20:01.914Z,992.17
2019-04-25T07:25:03.561Z,992.21
2019-04-25T07:30:01.768Z,992.27
2019-04-25T07:35:03.475Z,992.32
2019-04-25T07:40:01.848Z,992.37
2019-04-25T07:45:01.998Z,992.37
2019-04-25T07:50:01.158Z,992.25
2019-04-25T07:55:01.300Z,992.17
2019-04-25T08:00:03.237Z,992.28
2019-04-25T08:05:01.833Z,992.16
2019-04-25T08:10:01.964Z,992.21
2019-04-25T08:15:03.917Z,992.26
2019-04-25T08:20:01.270Z,992.3
2019-04-25T08:25:01.400Z,992.33
2019-04-25T08:30:01.502Z,992.34
2019-04-25T08:35:01.643Z,992.47
2019-04-25T08:40:01.827Z,992.5
2019-04-25T08:45:03.654Z,992.42
2019-04-25T08:50:03.529Z,992.3
2019-04-25T08:55:01.824Z,992.23
2019-04-25T09:00:01.949Z,992.3
2019-04-25T09:05:02.052Z,992.23
2019-04-25T09:10:03.657Z,992.2
2019-04-25T09:15:01.807Z,992.24
2019-04-25T09:20:02.007Z,992.18
2019-04-25T09:25:01.154Z,992.12
2019-04-25T09:30:01.287Z,992.14
2019-04-25T09:35:01.427Z,992.12
2019-04-25T09:40:01.606Z,992.09
2019-04-25T09:45:03.644Z,992.14
2019-04-25T09:50:01.896Z,992.05
2019-04-25T09:55:03.406Z,991.95
2019-04-25T10:00:03.518Z,991.98
2019-04-25T10:05:01.822Z,991.95
2019-04-25T10:10:03.649Z,991.93
2019-04-25T10:15:01.909Z,991.93
2019-04-25T10:20:02.070Z,991.84
2019-04-25T10:25:01.225Z,991.83
2019-04-25T10:30:14.578Z,991.76
2019-04-25T10:35:01.639Z,991.71
2019-04-25T10:40:01.794Z,991.65
2019-04-25T10:45:04.044Z,991.72
2019-04-25T10:50:01.336Z,991.7
2019-04-25T10:55:01.469Z,991.65
2019-04-25T11:00:07.524Z,991.66
2019-04-25T11:05:03.403Z,991.7
2019-04-25T11:10:03.434Z,991.69
2019-04-25T11:15:01.747Z,991.63
2019-04-25T11:20:03.653Z,991.46
2019-04-25T11:25:01.598Z,991.52
2019-04-25T11:30:10.477Z,991.55
2019-04-25T11:35:01.387Z,991.47
2019-04-25T11:40:01.577Z,991.19
2019-04-25T11:45:02.638Z,991.26
2019-04-25T11:50:01.172Z,991.22
2019-04-25T11:55:01.326Z,991.11
2019-04-25T12:00:01.503Z,991.26
2019-04-25T12:05:01.664Z,991.21
2019-04-25T12:10:03.614Z,991.25
2019-04-25T12:15:01.927Z,991.21
2019-04-25T12:20:03.738Z,991.16
2019-04-25T12:25:01.949Z,991.06
2019-04-25T12:30:03.863Z,991.01
2019-04-25T12:35:01.525Z,991.04
2019-04-25T12:40:04.061Z,990.95
2019-04-25T12:45:01.507Z,990.87
2019-04-25T12:50:01.624Z,990.97
2019-04-25T12:55:01.995Z,991.06
2019-04-25T13:00:01.705Z,990.98
2019-04-25T13:05:01.845Z,991.03
2019-04-25T13:10:01.952Z,991.07
2019-04-25T13:15:02.137Z,991
2019-04-25T13:20:01.708Z,990.9
2019-04-25T13:25:03.172Z,990.75
2019-04-25T13:30:01.453Z,990.59
2019-04-25T13:35:03.214Z,990.54
2019-04-25T13:40:01.976Z,990.49
2019-04-25T13:45:03.135Z,990.58
2019-04-25T13:50:01.694Z,990.49
2019-04-25T13:55:03.687Z,990.57
2019-04-25T14:00:01.940Z,990.48
2019-04-25T14:05:03.576Z,990.56
2019-04-25T14:10:01.306Z,990.61
2019-04-25T14:15:01.506Z,990.53
2019-04-25T14:20:01.606Z,990.42
2019-04-25T14:25:01.706Z,990.38
2019-04-25T14:30:03.747Z,990.37
2019-04-25T14:35:03.416Z,990.39
2019-04-25T14:40:01.629Z,990.39
2019-04-25T14:45:01.767Z,990.5
2019-04-25T14:50:01.934Z,990.64
2019-04-25T14:55:02.056Z,990.55
2019-04-25T15:00:04.434Z,990.5
2019-04-25T15:05:01.796Z,990.27
2019-04-25T15:10:01.895Z,990.18
2019-04-25T15:15:02.017Z,990.35
2019-04-25T15:20:01.158Z,990.38
2019-04-25T15:25:01.292Z,990.41
2019-04-25T15:30:01.438Z,990.59
2019-04-25T15:35:01.640Z,990.51
2019-04-25T15:40:01.745Z,990.55
2019-04-25T15:45:01.886Z,990.43
2019-04-25T15:50:02.030Z,990.52
2019-04-25T15:55:07.266Z,990.6
2019-04-25T16:00:02.023Z,990.54
2019-04-25T16:05:01.197Z,990.53
2019-04-25T16:10:01.334Z,990.61
2019-04-25T16:15:01.523Z,990.47
2019-04-25T16:20:01.663Z,990.55
2019-04-25T16:25:01.761Z,990.67
2019-04-25T16:30:01.898Z,990.75
2019-04-25T16:35:02.118Z,990.98
2019-04-25T16:40:01.261Z,991.16
2019-04-25T16:45:01.389Z,991.23
2019-04-25T16:50:01.526Z,991.3
2019-04-25T16:55:01.771Z,991.4
2019-04-25T17:00:01.914Z,991.54
2019-04-25T17:05:02.063Z,991.76
2019-04-25T17:10:01.181Z,991.57
2019-04-25T17:15:01.368Z,991.42
2019-04-25T17:20:01.487Z,991.51
2019-04-25T17:25:01.626Z,991.67
2019-04-25T17:30:01.755Z,991.65
2019-04-25T17:35:01.970Z,991.49
2019-04-25T17:40:02.103Z,991.58
2019-04-25T17:45:01.195Z,991.62
2019-04-25T17:50:01.317Z,991.81
2019-04-25T17:55:01.475Z,991.84
2019-04-25T18:00:01.608Z,991.91
2019-04-25T18:05:01.736Z,991.9
2019-04-25T18:10:01.865Z,992.17
2019-04-25T18:15:02.004Z,992.23
2019-04-25T18:20:01.149Z,992.36
2019-04-25T18:25:01.282Z,992.5
2019-04-25T18:30:01.378Z,992.56
2019-04-25T18:35:01.583Z,992.55
2019-04-25T18:40:01.711Z,992.41
2019-04-25T18:45:01.843Z,992.62
2019-04-25T18:50:01.960Z,992.88
2019-04-25T18:55:02.146Z,992.98
2019-04-25T19:00:01.242Z,993.07
2019-04-25T19:05:01.353Z,993.15
2019-04-25T19:10:01.450Z,993.22
2019-04-25T19:15:01.638Z,993.26
2019-04-25T19:20:01.799Z,993.36
2019-04-25T19:25:01.898Z,993.42
2019-04-25T19:30:02.029Z,993.43
2019-04-25T19:35:01.201Z,993.41
2019-04-25T19:40:01.327Z,993.44
2019-04-25T19:45:01.469Z,993.41
2019-04-25T19:50:01.641Z,993.65
2019-04-25T19:55:01.791Z,993.67
2019-04-25T20:00:01.931Z,993.65
2019-04-25T20:05:02.071Z,993.62
2019-04-25T20:10:01.243Z,993.58
2019-04-25T20:15:01.654Z,993.7
2019-04-25T20:20:01.795Z,993.7
2019-04-25T20:25:01.890Z,993.62
2019-04-25T20:30:02.034Z,993.51
2019-04-25T20:35:01.262Z,993.74
2019-04-25T20:40:01.394Z,993.77
2019-04-25T20:45:01.564Z,993.62
2019-04-25T20:50:01.696Z,993.41
2019-04-25T20:55:01.919Z,993.46
2019-04-25T21:00:02.053Z,993.55
2019-04-25T21:05:01.206Z,993.65
2019-04-25T21:10:01.338Z,993.82
2019-04-25T21:15:01.496Z,993.91
2019-04-25T21:20:02.877Z,993.97
2019-04-25T21:25:02.375Z,994.15
2019-04-25T21:30:02.352Z,994.11
2019-04-25T21:35:01.580Z,994.35
2019-04-25T21:40:02.888Z,994.44
2019-04-25T21:45:01.189Z,994.51
2019-04-25T21:50:01.338Z,994.5
2019-04-25T21:55:01.822Z,994.21
2019-04-25T22:00:06.132Z,994.42
2019-04-25T22:05:01.207Z,994.45
2019-04-25T22:10:01.963Z,994.35
2019-04-25T22:15:02.104Z,994.18
2019-04-25T22:20:02.240Z,993.86
2019-04-25T22:25:02.605Z,993.99
2019-04-25T22:30:01.831Z,993.88
2019-04-25T22:35:01.760Z,993.79
2019-04-25T22:40:01.945Z,993.68
2019-04-25T22:45:02.069Z,993.76
2019-04-25T22:50:01.849Z,993.77
2019-04-25T22:55:02.209Z,993.76
2019-04-25T23:00:02.344Z,993.76
2019-04-25T23:05:09.163Z,993.77
2019-04-25T23:10:01.963Z,993.77
2019-04-25T23:15:01.212Z,993.96
2019-04-25T23:20:01.346Z,994.05
2019-04-25T23:25:01.444Z,994.03
2019-04-25T23:30:01.581Z,994.28
2019-04-25T23:35:02.013Z,994.03
2019-04-25T23:40:01.271Z,993.78
2019-04-25T23:45:01.405Z,993.56
2019-04-25T23:50:01.546Z,993.65
2019-04-25T23:55:01.707Z,993.82
